createdAt,value
2019-04-22T00:00:02.863Z,926.63
2019-04-22T00:00:37.110Z,926.61
2019-04-22T00:01:13.563Z,926.63
2019-04-22T00:01:45.548Z,926.62
2019-04-22T00:02:15.671Z,926.6
2019-04-22T00:02:51.311Z,926.61
2019-04-22T00:03:37.638Z,926.61
2019-04-22T00:04:50.779Z,926.58
2019-04-22T00:07:08.280Z,926.57
2019-04-22T00:09:58.015Z,926.55
2019-04-22T00:12:59.638Z,926.53
2019-04-22T00:15:36.606Z,926.58
2019-04-22T00:18:54.083Z,926.58
2019-04-22T00:21:54.957Z,926.6
2019-04-22T00:24:36.491Z,926.6
2019-04-22T00:27:33.432Z,926.62
2019-04-22T00:30:40.289Z,926.64
2019-04-22T00:33:12.855Z,926.66
2019-04-22T00:36:00.988Z,926.65
2019-04-22T00:39:14.919Z,926.59
2019-04-22T00:41:55.072Z,926.63
2019-04-22T00:44:51.237Z,926.65
2019-04-22T00:47:43.019Z,926.64
2019-04-22T00:51:33.401Z,926.65
2019-04-22T00:54:21.264Z,926.66
2019-04-22T00:57:38.618Z,926.72
2019-04-22T01:00:05.219Z,926.66
2019-04-22T01:02:41.340Z,926.65
2019-04-22T01:05:40.249Z,926.63
2019-04-22T01:09:04.211Z,926.61
2019-04-22T01:12:13.324Z,926.62
2019-04-22T01:15:06.855Z,926.63
2019-04-22T01:18:09.146Z,926.62
2019-04-22T01:21:22.463Z,926.53
2019-04-22T01:23:51.741Z,926.51
2019-04-22T01:26:09.288Z,926.56
2019-04-22T01:28:00.748Z,926.56
2019-04-22T01:29:48.800Z,926.54
2019-04-22T01:31:07.375Z,926.55
2019-04-22T01:31:48.886Z,926.56
2019-04-22T01:32:23.787Z,926.56
2019-04-22T01:33:21.468Z,926.59
2019-04-22T01:34:52.239Z,926.63
2019-04-22T01:36:47.249Z,926.64
2019-04-22T01:39:01.817Z,926.62
2019-04-22T01:42:24.237Z,926.65
2019-04-22T01:45:52.821Z,926.71
2019-04-22T01:48:59.286Z,926.68
2019-04-22T01:51:58.244Z,926.65
2019-04-22T01:55:17.306Z,926.63
2019-04-22T01:57:59.119Z,926.61
2019-04-22T02:00:10.973Z,926.64
2019-04-22T02:03:10.121Z,926.61
2019-04-22T02:06:13.428Z,926.64
2019-04-22T02:09:22.285Z,926.63
2019-04-22T02:12:38.470Z,926.58
2019-04-22T02:15:37.789Z,926.58
2019-04-22T02:19:00.661Z,926.59
2019-04-22T02:21:59.213Z,926.57
2019-04-22T02:25:49.274Z,926.55
2019-04-22T02:29:34.243Z,926.55
2019-04-22T02:33:38.874Z,926.56
2019-04-22T02:37:22.591Z,926.53
2019-04-22T02:44:52.654Z,926.46
2019-04-22T02:47:49.681Z,926.4
2019-04-22T02:51:32.453Z,926.33
2019-04-22T02:55:22.514Z,926.37
2019-04-22T03:02:27.994Z,926.4
2019-04-22T03:05:17.392Z,926.4
2019-04-22T03:08:29.067Z,926.36
2019-04-22T03:11:56.345Z,926.32
2019-04-22T03:15:19.398Z,926.34
2019-04-22T03:27:58.075Z,926.23
2019-04-22T03:32:38.915Z,926.2
2019-04-22T03:36:04.235Z,926.19
2019-04-22T03:43:53.761Z,926.14
2019-04-22T03:47:01.217Z,926.07
2019-04-22T03:50:27.675Z,926.1
2019-04-22T03:54:28.757Z,926.13
2019-04-22T03:58:00.981Z,926.12
2019-04-22T04:01:36.262Z,926.1
2019-04-22T04:05:21.486Z,926.11
2019-04-22T04:08:19.474Z,926.09
2019-04-22T04:12:27.862Z,926.02
2019-04-22T04:16:19.044Z,926.05
2019-04-22T04:23:16.441Z,925.98
2019-04-22T04:27:18.006Z,925.92
2019-04-22T04:30:45.596Z,925.98
2019-04-22T04:41:33.478Z,925.82
2019-04-22T04:48:59.868Z,925.83
2019-04-22T04:52:38.355Z,925.81
2019-04-22T05:13:32.052Z,925.67
2019-04-22T05:16:46.168Z,925.58
2019-04-22T05:19:35.562Z,925.49
2019-04-22T05:27:04.692Z,925.45
2019-04-22T05:30:19.266Z,925.37
2019-04-22T05:33:20.896Z,925.37
2019-04-22T05:36:39.894Z,925.36
2019-04-22T05:39:35.486Z,925.32
2019-04-22T05:42:33.984Z,925.34
2019-04-22T05:45:24.606Z,925.29
2019-04-22T05:48:16.918Z,925.28
2019-04-22T05:51:00.892Z,925.26
2019-04-22T05:53:39.876Z,925.3
2019-04-22T05:59:37.336Z,925.24
2019-04-22T06:03:28.165Z,925.25
2019-04-22T06:06:28.592Z,925.25
2019-04-22T06:09:24.144Z,925.22
2019-04-22T06:12:04.368Z,925.19
2019-04-22T06:14:30.598Z,925.21
2019-04-22T06:17:16.684Z,925.16
2019-04-22T06:20:21.611Z,925.13
2019-04-22T06:23:39.108Z,925.12
2019-04-22T06:27:20.683Z,925.09
2019-04-22T06:30:20.437Z,925.09
2019-04-22T06:33:40.343Z,925.07
2019-04-22T06:40:05.813Z,924.99
2019-04-22T06:46:20.081Z,925.01
2019-04-22T06:49:41.324Z,925.01
2019-04-22T06:52:44.976Z,924.94
2019-04-22T06:55:35.294Z,924.93
2019-04-22T06:58:34.450Z,924.96
2019-04-22T07:01:27.430Z,924.96
2019-04-22T07:04:16.070Z,924.94
2019-04-22T07:07:06.315Z,924.95
2019-04-22T07:10:50.198Z,924.9
2019-04-22T07:13:27.015Z,924.85
2019-04-22T07:16:24.910Z,924.89
2019-04-22T07:22:21.358Z,924.88
2019-04-22T07:25:40.454Z,924.84
2019-04-22T07:28:43.636Z,924.88
2019-04-22T07:31:49.175Z,924.8
2019-04-22T07:35:21.889Z,924.86
2019-04-22T07:38:42.167Z,924.94
2019-04-22T07:41:42.810Z,925
2019-04-22T07:44:54.626Z,925.01
2019-04-22T07:47:43.977Z,925.15
2019-04-22T07:53:47.104Z,925.15
2019-04-22T07:56:29.061Z,925.17
2019-04-22T07:59:15.021Z,925.23
2019-04-22T08:02:01.773Z,925.27
2019-04-22T08:05:32.650Z,925.31
2019-04-22T08:08:43.509Z,925.36
2019-04-22T08:11:52.152Z,925.32
2019-04-22T08:14:45.343Z,925.39
2019-04-22T08:20:58.183Z,925.47
2019-04-22T08:23:30.098Z,925.5
2019-04-22T08:32:21.539Z,925.61
2019-04-22T08:35:39.225Z,925.63
2019-04-22T08:39:13.403Z,925.68
2019-04-22T08:42:42.732Z,925.76
2019-04-22T08:46:16.452Z,925.81
2019-04-22T08:49:09.611Z,925.88
2019-04-22T08:52:15.604Z,925.96
2019-04-22T08:55:24.206Z,926
2019-04-22T08:58:49.960Z,926.04
2019-04-22T09:02:19.441Z,926.1
2019-04-22T09:04:53.214Z,926.16
2019-04-22T09:08:33.624Z,926.18
2019-04-22T09:11:26.384Z,926.23
2019-04-22T09:14:24.017Z,926.28
2019-04-22T09:17:10.046Z,926.25
2019-04-22T09:19:59.786Z,926.3
2019-04-22T09:23:14.632Z,926.38
2019-04-22T09:25:52.991Z,926.44
2019-04-22T09:32:32.560Z,926.49
2019-04-22T09:35:09.293Z,926.54
2019-04-22T09:38:30.897Z,926.57
2019-04-22T09:41:46.066Z,926.7
2019-04-22T09:44:40.055Z,926.76
2019-04-22T09:47:24.751Z,926.76
2019-04-22T09:50:28.983Z,926.74
2019-04-22T09:53:14.657Z,926.73
2019-04-22T09:56:23.613Z,926.78
2019-04-22T09:59:02.052Z,926.86
2019-04-22T10:02:12.721Z,926.85
2019-04-22T10:05:32.096Z,926.89
2019-04-22T10:08:23.677Z,926.92
2019-04-22T10:14:30.636Z,926.94
2019-04-22T10:16:59.634Z,926.97
2019-04-22T10:19:52.842Z,927.01
2019-04-22T10:22:51.462Z,927.01
2019-04-22T10:25:29.183Z,927.03
2019-04-22T10:28:32.061Z,927.12
2019-04-22T10:31:42.815Z,927.15
2019-04-22T10:33:59.667Z,927.18
2019-04-22T10:35:10.667Z,927.14
2019-04-22T10:35:37.298Z,927.17
2019-04-22T10:35:55.203Z,927.2
2019-04-22T10:36:13.116Z,927.25
2019-04-22T10:36:30.953Z,927.24
2019-04-22T10:37:09.727Z,927.19
2019-04-22T10:37:34.242Z,927.27
2019-04-22T10:37:52.132Z,927.25
2019-04-22T10:38:10.320Z,927.21
2019-04-22T10:38:28.370Z,927.21
2019-04-22T10:38:46.538Z,927.21
2019-04-22T10:39:04.251Z,927.2
2019-04-22T10:39:32.697Z,927.21
2019-04-22T10:40:13.551Z,927.21
2019-04-22T10:40:29.873Z,927.17
2019-04-22T10:40:47.891Z,927.19
2019-04-22T10:41:05.975Z,927.2
2019-04-22T10:41:23.901Z,927.18
2019-04-22T10:41:41.921Z,927.19
2019-04-22T10:42:00.013Z,927.21
2019-04-22T10:42:17.460Z,927.18
2019-04-22T10:42:35.428Z,927.2
2019-04-22T10:42:53.529Z,927.19
2019-04-22T10:43:11.482Z,927.19
2019-04-22T10:43:29.446Z,927.19
2019-04-22T10:43:47.589Z,927.2
2019-04-22T10:44:05.401Z,927.2
2019-04-22T10:44:23.610Z,927.2
2019-04-22T10:44:41.414Z,927.22
2019-04-22T10:45:01.040Z,927.26
2019-04-22T10:45:18.477Z,927.22
2019-04-22T10:45:36.191Z,927.2
2019-04-22T10:45:52.276Z,927.19
2019-04-22T10:46:10.522Z,927.22
2019-04-22T10:46:28.305Z,927.22
2019-04-22T10:46:44.337Z,927.24
2019-04-22T10:47:04.213Z,927.25
2019-04-22T10:47:22.240Z,927.27
2019-04-22T10:47:40.333Z,927.26
2019-04-22T10:47:58.336Z,927.26
2019-04-22T10:48:16.437Z,927.24
2019-04-22T10:48:34.367Z,927.2
2019-04-22T10:48:52.733Z,927.22
2019-04-22T10:49:10.453Z,927.22
2019-04-22T10:49:26.542Z,927.23
2019-04-22T10:49:44.448Z,927.2
2019-04-22T10:50:02.683Z,927.23
2019-04-22T10:50:20.584Z,927.25
2019-04-22T10:50:41.113Z,927.19
2019-04-22T10:50:58.875Z,927.23
2019-04-22T10:51:14.744Z,927.27
2019-04-22T10:51:32.706Z,927.24
2019-04-22T10:51:50.754Z,927.26
2019-04-22T11:33:28.232Z,927.81
2019-04-22T11:33:45.898Z,927.8
2019-04-22T11:34:03.876Z,927.84
2019-04-22T11:34:21.320Z,927.81
2019-04-22T11:34:39.347Z,927.79
2019-04-22T11:34:56.006Z,927.81
2019-04-22T11:35:13.891Z,927.85
2019-04-22T11:35:29.830Z,927.78
2019-04-22T11:35:47.905Z,927.82
2019-04-22T11:36:06.070Z,927.84
2019-04-22T11:36:24.730Z,927.84
2019-04-22T11:36:44.982Z,927.86
2019-04-22T11:37:00.995Z,927.83
2019-04-22T11:37:18.542Z,927.84
2019-04-22T11:37:34.736Z,927.87
2019-04-22T11:37:52.718Z,927.84
2019-04-22T11:38:10.731Z,927.79
2019-04-22T11:38:28.811Z,927.88
2019-04-22T11:39:07.567Z,927.87
2019-04-22T11:39:34.820Z,927.87
2019-04-22T11:40:25.254Z,927.89
2019-04-22T11:41:03.447Z,927.93
2019-04-22T11:41:21.546Z,927.87
2019-04-22T11:41:37.957Z,927.92
2019-04-22T11:41:55.931Z,927.92
2019-04-22T11:42:14.020Z,927.88
2019-04-22T11:42:32.271Z,927.9
2019-04-22T11:42:50.257Z,927.87
2019-04-22T11:43:10.232Z,927.89
2019-04-22T11:43:28.450Z,927.91
2019-04-22T11:43:45.146Z,927.89
2019-04-22T11:44:03.094Z,927.91
2019-04-22T11:44:21.338Z,927.91
2019-04-22T11:44:41.229Z,927.95
2019-04-22T11:44:57.123Z,927.94
2019-04-22T11:45:15.255Z,927.92
2019-04-22T11:45:33.223Z,927.97
2019-04-22T11:45:51.172Z,927.94
2019-04-22T11:46:09.320Z,927.95
2019-04-22T11:46:27.299Z,927.96
2019-04-22T11:46:45.255Z,927.98
2019-04-22T11:47:03.342Z,928.01
2019-04-22T11:47:21.393Z,927.99
2019-04-22T11:47:39.324Z,927.99
2019-04-22T11:47:55.238Z,928
2019-04-22T11:48:13.234Z,927.99
2019-04-22T11:48:29.182Z,928
2019-04-22T11:48:45.495Z,928.03
2019-04-22T11:49:01.431Z,928.03
2019-04-22T11:49:19.284Z,928.01
2019-04-22T11:49:37.313Z,928.04
2019-04-22T11:49:55.570Z,928.03
2019-04-22T11:50:13.273Z,928.04
2019-04-22T11:50:31.325Z,928.03
2019-04-22T11:50:49.213Z,928.03
2019-04-22T11:51:07.261Z,928.01
2019-04-22T11:51:25.451Z,928.01
2019-04-22T11:51:43.216Z,928.04
2019-04-22T11:52:00.971Z,928.02
2019-04-22T11:52:22.634Z,928.07
2019-04-22T11:52:40.428Z,928.06
2019-04-22T11:52:58.230Z,928.08
2019-04-22T11:53:16.488Z,928.05
2019-04-22T11:53:34.413Z,928.06
2019-04-22T11:53:52.399Z,928.03
2019-04-22T11:54:10.512Z,928.04
2019-04-22T11:54:28.401Z,928.07
2019-04-22T11:54:46.687Z,928.07
2019-04-22T11:55:04.331Z,928.07
2019-04-22T11:55:22.364Z,928.06
2019-04-22T11:55:40.404Z,928.09
2019-04-22T11:55:58.326Z,928.07
2019-04-22T11:56:16.619Z,928.06
2019-04-22T11:56:34.712Z,928.05
2019-04-22T11:56:50.960Z,928.03
2019-04-22T11:57:08.495Z,928.03
2019-04-22T11:57:26.517Z,928.06
2019-04-22T11:57:45.647Z,928.02
2019-04-22T11:58:03.046Z,928.07
2019-04-22T11:58:21.191Z,928.02
2019-04-22T11:58:39.004Z,928
2019-04-22T11:58:57.038Z,928.02
2019-04-22T11:59:15.024Z,928.04
2019-04-22T11:59:32.988Z,928.03
2019-04-22T11:59:51.048Z,928.05
2019-04-22T12:00:09.097Z,928.07
2019-04-22T12:00:27.015Z,928.04
2019-04-22T12:00:45.098Z,928.04
2019-04-22T12:01:04.894Z,928.01
2019-04-22T12:01:22.081Z,928.05
2019-04-22T12:01:40.113Z,928.03
2019-04-22T12:01:58.090Z,928.02
2019-04-22T12:02:20.076Z,927.99
2019-04-22T12:02:40.921Z,928.01
2019-04-22T12:02:58.789Z,928
2019-04-22T12:03:16.854Z,927.97
2019-04-22T12:03:33.785Z,927.98
2019-04-22T12:03:51.751Z,927.97
2019-04-22T12:04:09.687Z,928.02
2019-04-22T12:04:27.627Z,927.98
2019-04-22T12:04:45.525Z,927.96
2019-04-22T12:05:03.781Z,927.93
2019-04-22T12:05:23.743Z,927.93
2019-04-22T12:05:41.680Z,927.96
2019-04-22T12:05:57.790Z,927.97
2019-04-22T12:06:15.784Z,927.95
2019-04-22T12:06:33.719Z,927.93
2019-04-22T12:06:51.691Z,927.96
2019-04-22T12:07:10.884Z,927.94
2019-04-22T12:07:31.360Z,927.95
2019-04-22T12:07:53.157Z,927.92
2019-04-22T12:08:11.244Z,927.94
2019-04-22T12:08:27.012Z,927.97
2019-04-22T12:08:43.675Z,927.96
2019-04-22T12:09:01.620Z,927.93
2019-04-22T12:09:19.479Z,927.94
2019-04-22T12:09:37.518Z,927.92
2019-04-22T12:09:55.573Z,927.92
2019-04-22T12:10:51.455Z,927.93
2019-04-22T12:11:14.767Z,927.93
2019-04-22T12:11:32.385Z,927.91
2019-04-22T12:11:49.480Z,927.91
2019-04-22T12:12:07.653Z,927.93
2019-04-22T12:12:25.559Z,927.96
2019-04-22T12:12:47.818Z,927.92
2019-04-22T12:13:08.075Z,927.89
2019-04-22T12:13:26.144Z,927.88
2019-04-22T12:13:44.091Z,927.91
2019-04-22T12:14:02.110Z,927.91
2019-04-22T12:14:20.047Z,927.89
2019-04-22T12:14:40.133Z,927.9
2019-04-22T12:14:56.376Z,927.9
2019-04-22T12:15:15.022Z,927.85
2019-04-22T12:15:32.954Z,927.84
2019-04-22T12:15:51.140Z,927.85
2019-04-22T12:16:07.442Z,927.85
2019-04-22T12:16:25.467Z,927.86
2019-04-22T12:16:43.549Z,927.84
2019-04-22T12:17:01.568Z,927.84
2019-04-22T12:17:18.043Z,927.89
2019-04-22T12:17:36.142Z,927.83
2019-04-22T12:17:55.246Z,927.85
2019-04-22T12:18:13.070Z,927.87
2019-04-22T12:18:31.231Z,927.86
2019-04-22T12:18:49.280Z,927.86
2019-04-22T12:19:09.190Z,927.86
2019-04-22T12:19:27.109Z,927.88
2019-04-22T12:19:44.204Z,927.85
2019-04-22T12:20:05.463Z,927.9
2019-04-22T12:20:29.376Z,927.9
2019-04-22T12:20:47.417Z,927.94
2019-04-22T12:21:05.386Z,927.93
2019-04-22T12:21:23.348Z,927.89
2019-04-22T12:21:41.301Z,927.85
2019-04-22T12:21:59.080Z,927.89
2019-04-22T12:22:17.307Z,927.89
2019-04-22T12:22:35.735Z,927.9
2019-04-22T12:22:53.357Z,927.86
2019-04-22T12:23:11.118Z,927.86
2019-04-22T12:23:30.516Z,927.87
2019-04-22T12:23:48.677Z,927.85
2019-04-22T12:24:06.603Z,927.86
2019-04-22T12:24:25.975Z,927.86
2019-04-22T12:24:43.622Z,927.89
2019-04-22T12:25:01.692Z,927.89
2019-04-22T12:25:54.047Z,927.9
2019-04-22T12:26:30.531Z,927.91
2019-04-22T12:26:48.372Z,927.89
2019-04-22T12:27:06.331Z,927.91
2019-04-22T12:27:28.617Z,927.93
2019-04-22T12:27:47.244Z,927.9
2019-04-22T12:28:05.310Z,927.89
2019-04-22T12:28:23.207Z,927.92
2019-04-22T12:28:41.152Z,927.94
2019-04-22T12:28:59.276Z,927.95
2019-04-22T12:29:17.145Z,927.91
2019-04-22T12:29:35.123Z,927.94
2019-04-22T12:29:53.142Z,927.92
2019-04-22T12:30:11.138Z,927.94
2019-04-22T12:30:29.770Z,927.96
2019-04-22T12:30:47.843Z,927.92
2019-04-22T12:31:05.692Z,927.94
2019-04-22T12:31:23.756Z,927.89
2019-04-22T12:31:41.961Z,927.89
2019-04-22T12:31:59.659Z,927.92
2019-04-22T12:32:17.750Z,927.88
2019-04-22T12:32:35.728Z,927.86
2019-04-22T12:32:52.657Z,927.83
2019-04-22T12:33:14.889Z,927.85
2019-04-22T12:33:32.760Z,927.85
2019-04-22T12:33:50.726Z,927.88
2019-04-22T12:34:09.026Z,927.88
2019-04-22T12:34:26.824Z,927.89
2019-04-22T12:34:44.783Z,927.92
2019-04-22T12:35:02.910Z,927.91
2019-04-22T12:35:20.890Z,927.94
2019-04-22T12:35:38.750Z,927.89
2019-04-22T12:35:56.809Z,927.91
2019-04-22T12:36:14.852Z,927.92
2019-04-22T12:36:32.755Z,927.93
2019-04-22T12:36:51.035Z,927.92
2019-04-22T12:37:08.741Z,927.98
2019-04-22T12:38:04.748Z,927.96
2019-04-22T12:38:27.383Z,927.95
2019-04-22T12:38:45.256Z,928
2019-04-22T12:39:03.211Z,927.97
2019-04-22T12:39:21.115Z,928
2019-04-22T12:39:39.135Z,927.94
2019-04-22T12:40:02.639Z,927.98
2019-04-22T12:40:52.899Z,928.03
2019-04-22T12:41:21.602Z,927.97
2019-04-22T12:41:38.226Z,928.02
2019-04-22T12:41:56.168Z,928.02
2019-04-22T12:42:15.323Z,928.02
2019-04-22T12:42:33.224Z,928.01
2019-04-22T12:42:51.325Z,927.96
2019-04-22T12:43:14.909Z,928
2019-04-22T12:43:37.303Z,927.95
2019-04-22T12:43:55.487Z,927.96
2019-04-22T12:44:13.292Z,927.97
2019-04-22T12:44:32.721Z,927.95
2019-04-22T12:44:55.943Z,927.97
2019-04-22T12:45:16.229Z,927.96
2019-04-22T12:45:34.175Z,927.95
2019-04-22T12:45:52.090Z,928
2019-04-22T12:46:10.130Z,927.96
2019-04-22T12:46:28.129Z,927.92
2019-04-22T12:46:46.104Z,927.97
2019-04-22T12:47:07.851Z,927.96
2019-04-22T12:47:26.252Z,927.95
2019-04-22T12:47:44.113Z,927.94
2019-04-22T12:48:02.103Z,927.93
2019-04-22T12:48:19.055Z,927.94
2019-04-22T12:48:37.032Z,927.92
2019-04-22T12:48:56.210Z,927.93
2019-04-22T12:49:14.252Z,927.96
2019-04-22T12:49:32.188Z,927.94
2019-04-22T12:50:20.395Z,927.98
2019-04-22T12:50:56.777Z,927.95
2019-04-22T12:51:16.493Z,927.96
2019-04-22T12:51:34.365Z,928.01
2019-04-22T12:51:52.431Z,928
2019-04-22T12:52:23.883Z,927.98
2019-04-22T12:53:16.308Z,927.99
2019-04-22T12:53:40.128Z,928
2019-04-22T12:53:59.370Z,928.03
2019-04-22T12:54:17.087Z,928
2019-04-22T12:54:35.108Z,927.95
2019-04-22T12:54:52.958Z,927.95
2019-04-22T12:55:11.992Z,928
2019-04-22T12:55:32.367Z,927.97
2019-04-22T12:55:50.282Z,928.01
2019-04-22T12:56:09.183Z,927.97
2019-04-22T12:56:25.823Z,927.97
2019-04-22T12:56:43.963Z,928.02
2019-04-22T12:57:01.696Z,928.02
2019-04-22T12:57:20.652Z,927.98
2019-04-22T12:57:38.862Z,928
2019-04-22T12:58:02.805Z,928.02
2019-04-22T12:58:21.121Z,928
2019-04-22T12:58:39.098Z,928
2019-04-22T12:58:56.995Z,928.02
2019-04-22T12:59:15.085Z,928.02
2019-04-22T12:59:32.566Z,928.02
2019-04-22T12:59:49.820Z,928.02
2019-04-22T13:00:07.930Z,928.01
2019-04-22T13:00:24.694Z,928.03
2019-04-22T13:00:42.761Z,928
2019-04-22T13:01:03.266Z,928
2019-04-22T13:01:21.202Z,928.03
2019-04-22T13:01:39.159Z,928.04
2019-04-22T13:01:56.938Z,928.02
2019-04-22T13:02:16.596Z,927.97
2019-04-22T13:02:34.549Z,928
2019-04-22T13:02:52.448Z,927.99
2019-04-22T13:03:11.018Z,928.01
2019-04-22T13:03:28.568Z,927.98
2019-04-22T13:03:46.454Z,927.96
2019-04-22T13:04:21.004Z,927.94
2019-04-22T13:04:38.463Z,927.97
2019-04-22T13:04:56.262Z,927.96
2019-04-22T13:05:14.238Z,927.94
2019-04-22T13:05:33.375Z,927.91
2019-04-22T13:05:51.450Z,927.96
2019-04-22T13:06:11.963Z,927.94
2019-04-22T13:06:30.079Z,927.97
2019-04-22T13:06:47.942Z,927.96
2019-04-22T13:07:06.020Z,927.95
2019-04-22T13:07:24.080Z,927.97
2019-04-22T13:07:41.818Z,927.98
2019-04-22T13:07:57.816Z,927.96
2019-04-22T13:08:15.790Z,927.96
2019-04-22T13:08:33.912Z,927.98
2019-04-22T13:08:52.333Z,927.98
2019-04-22T13:09:10.490Z,928
2019-04-22T13:09:29.401Z,927.94
2019-04-22T13:09:47.330Z,927.94
2019-04-22T13:10:03.988Z,927.91
2019-04-22T13:10:21.933Z,927.98
2019-04-22T13:11:12.799Z,927.93
2019-04-22T13:11:45.944Z,927.92
2019-04-22T13:12:03.306Z,927.95
2019-04-22T13:12:22.322Z,927.96
2019-04-22T13:12:40.231Z,927.94
2019-04-22T13:13:00.841Z,927.95
2019-04-22T13:13:18.771Z,927.89
2019-04-22T13:13:36.766Z,927.93
2019-04-22T13:13:54.732Z,927.93
2019-04-22T13:14:12.703Z,927.92
2019-04-22T13:14:30.519Z,927.91
2019-04-22T13:14:48.770Z,927.92
2019-04-22T13:15:09.792Z,927.89
2019-04-22T13:15:28.819Z,927.91
2019-04-22T13:15:46.783Z,927.91
2019-04-22T13:16:04.687Z,927.94
2019-04-22T13:16:22.866Z,927.97
2019-04-22T13:16:40.825Z,927.97
2019-04-22T13:16:59.743Z,927.95
2019-04-22T13:17:18.946Z,927.91
2019-04-22T13:17:37.927Z,927.9
2019-04-22T13:18:29.244Z,927.91
2019-04-22T13:19:14.942Z,927.87
2019-04-22T13:19:38.042Z,927.89
2019-04-22T13:19:56.066Z,927.9
2019-04-22T13:20:18.010Z,927.91
2019-04-22T13:20:36.499Z,927.93
2019-04-22T13:20:52.742Z,927.91
2019-04-22T13:21:10.806Z,927.84
2019-04-22T13:21:28.878Z,927.92
2019-04-22T13:21:46.782Z,927.92
2019-04-22T13:22:04.993Z,927.91
2019-04-22T13:22:23.121Z,927.86
2019-04-22T13:22:40.923Z,927.87
2019-04-22T13:22:58.813Z,927.86
2019-04-22T13:23:15.702Z,927.83
2019-04-22T13:23:31.737Z,927.86
2019-04-22T13:23:48.867Z,927.87
2019-04-22T13:24:07.050Z,927.82
2019-04-22T13:24:27.966Z,927.81
2019-04-22T13:24:45.812Z,927.81
2019-04-22T13:25:04.006Z,927.79
2019-04-22T13:25:24.662Z,927.78
2019-04-22T13:25:47.135Z,927.76
2019-04-22T13:26:05.121Z,927.78
2019-04-22T13:26:23.139Z,927.77
2019-04-22T13:26:41.132Z,927.77
2019-04-22T13:26:59.071Z,927.77
2019-04-22T13:27:17.183Z,927.8
2019-04-22T13:27:35.110Z,927.76
2019-04-22T13:27:53.291Z,927.8
2019-04-22T13:28:11.312Z,927.78
2019-04-22T13:28:29.241Z,927.81
2019-04-22T13:28:49.215Z,927.75
2019-04-22T13:29:07.289Z,927.76
2019-04-22T13:29:25.365Z,927.76
2019-04-22T13:29:43.449Z,927.72
2019-04-22T13:30:04.523Z,927.73
2019-04-22T13:30:24.013Z,927.74
2019-04-22T13:30:41.528Z,927.71
2019-04-22T13:31:01.717Z,927.73
2019-04-22T13:31:22.756Z,927.79
2019-04-22T13:31:40.353Z,927.71
2019-04-22T13:31:58.455Z,927.73
2019-04-22T13:32:16.354Z,927.73
2019-04-22T13:32:34.624Z,927.71
2019-04-22T13:32:52.502Z,927.73
2019-04-22T13:33:10.517Z,927.73
2019-04-22T13:33:28.572Z,927.7
2019-04-22T13:33:46.489Z,927.73
2019-04-22T13:34:29.166Z,927.75
2019-04-22T13:35:08.854Z,927.68
2019-04-22T13:35:29.782Z,927.73
2019-04-22T13:35:45.695Z,927.72
2019-04-22T13:36:03.738Z,927.71
2019-04-22T13:36:27.368Z,927.7
2019-04-22T13:36:48.744Z,927.8
2019-04-22T13:37:08.527Z,927.76
2019-04-22T13:37:26.382Z,927.79
2019-04-22T13:37:44.417Z,927.76
2019-04-22T13:38:02.334Z,927.75
2019-04-22T13:38:20.347Z,927.76
2019-04-22T13:38:40.607Z,927.74
2019-04-22T13:38:58.589Z,927.78
2019-04-22T13:39:16.702Z,927.74
2019-04-22T13:39:34.456Z,927.75
2019-04-22T13:39:52.715Z,927.75
2019-04-22T13:40:10.829Z,927.7
2019-04-22T13:40:28.687Z,927.73
2019-04-22T13:41:31.610Z,927.73
2019-04-22T13:44:14.619Z,927.69
2019-04-22T13:44:31.415Z,927.71
2019-04-22T13:44:49.624Z,927.7
2019-04-22T13:45:05.581Z,927.67
2019-04-22T13:45:23.107Z,927.7
2019-04-22T13:45:41.939Z,927.7
2019-04-22T13:45:59.527Z,927.73
2019-04-22T13:46:17.898Z,927.72
2019-04-22T13:47:01.913Z,927.67
2019-04-22T13:49:30.787Z,927.63
2019-04-22T13:52:39.784Z,927.59
2019-04-22T13:56:18.415Z,927.56
2019-04-22T13:58:13.912Z,927.54
2019-04-22T13:59:30.732Z,927.54
2019-04-22T14:00:08.386Z,927.54
2019-04-22T14:00:28.638Z,927.5
2019-04-22T14:00:44.652Z,927.51
2019-04-22T14:01:02.605Z,927.5
2019-04-22T14:01:20.543Z,927.54
2019-04-22T14:01:38.585Z,927.5
2019-04-22T14:01:56.465Z,927.5
2019-04-22T14:02:14.629Z,927.47
2019-04-22T14:02:32.714Z,927.49
2019-04-22T14:02:50.658Z,927.48
2019-04-22T14:03:08.840Z,927.47
2019-04-22T14:03:26.618Z,927.48
2019-04-22T14:03:46.874Z,927.47
2019-04-22T14:04:04.883Z,927.46
2019-04-22T14:04:22.705Z,927.46
2019-04-22T14:04:38.718Z,927.45
2019-04-22T14:04:56.725Z,927.45
2019-04-22T14:05:14.859Z,927.48
2019-04-22T14:05:32.918Z,927.48
2019-04-22T14:05:50.886Z,927.49
2019-04-22T14:06:08.983Z,927.43
2019-04-22T14:06:26.886Z,927.44
2019-04-22T14:06:44.830Z,927.44
2019-04-22T14:07:02.852Z,927.41
2019-04-22T14:07:20.854Z,927.44
2019-04-22T14:07:38.848Z,927.42
2019-04-22T14:08:01.262Z,927.39
2019-04-22T14:08:22.976Z,927.44
2019-04-22T14:08:40.847Z,927.42
2019-04-22T14:08:58.750Z,927.39
2019-04-22T14:09:20.387Z,927.37
2019-04-22T14:09:40.045Z,927.4
2019-04-22T14:09:58.177Z,927.36
2019-04-22T14:10:16.412Z,927.39
2019-04-22T14:10:34.375Z,927.39
2019-04-22T14:10:52.480Z,927.39
2019-04-22T14:12:01.875Z,927.41
2019-04-22T14:12:26.632Z,927.42
2019-04-22T14:12:44.606Z,927.41
2019-04-22T14:13:03.842Z,927.43
2019-04-22T14:13:21.664Z,927.39
2019-04-22T14:13:39.588Z,927.42
2019-04-22T14:13:58.696Z,927.4
2019-04-22T14:14:17.695Z,927.4
2019-04-22T14:14:35.707Z,927.4
2019-04-22T14:14:58.360Z,927.41
2019-04-22T14:15:15.861Z,927.41
2019-04-22T14:15:33.931Z,927.39
2019-04-22T14:15:52.930Z,927.39
2019-04-22T14:16:10.952Z,927.41
2019-04-22T14:16:28.957Z,927.39
2019-04-22T14:16:46.897Z,927.39
2019-04-22T14:17:04.912Z,927.4
2019-04-22T14:17:22.955Z,927.37
2019-04-22T14:17:40.982Z,927.36
2019-04-22T14:17:58.780Z,927.38
2019-04-22T14:18:16.874Z,927.41
2019-04-22T14:18:34.864Z,927.39
2019-04-22T14:18:55.957Z,927.37
2019-04-22T14:19:14.024Z,927.4
2019-04-22T14:19:32.229Z,927.39
2019-04-22T14:19:48.518Z,927.38
2019-04-22T14:20:06.745Z,927.42
2019-04-22T14:20:29.016Z,927.39
2019-04-22T14:20:49.117Z,927.4
2019-04-22T14:21:06.930Z,927.37
2019-04-22T14:21:24.909Z,927.38
2019-04-22T14:21:47.342Z,927.36
2019-04-22T14:22:05.061Z,927.41
2019-04-22T14:22:23.090Z,927.39
2019-04-22T14:22:40.777Z,927.38
2019-04-22T14:22:58.729Z,927.38
2019-04-22T14:23:20.454Z,927.32
2019-04-22T14:23:36.650Z,927.35
2019-04-22T14:23:54.076Z,927.37
2019-04-22T14:24:15.779Z,927.39
2019-04-22T14:24:32.063Z,927.39
2019-04-22T14:24:49.994Z,927.37
2019-04-22T14:25:08.075Z,927.38
2019-04-22T14:25:25.912Z,927.35
2019-04-22T14:25:44.128Z,927.34
2019-04-22T14:26:02.344Z,927.38
2019-04-22T14:26:19.651Z,927.36
2019-04-22T14:27:27.575Z,927.34
2019-04-22T14:28:21.104Z,927.33
2019-04-22T14:28:41.639Z,927.32
2019-04-22T14:28:59.939Z,927.32
2019-04-22T14:29:17.575Z,927.31
2019-04-22T14:29:35.680Z,927.34
2019-04-22T14:29:53.588Z,927.3
2019-04-22T14:30:12.526Z,927.35
2019-04-22T14:30:30.489Z,927.31
2019-04-22T14:30:48.533Z,927.31
2019-04-22T14:31:06.624Z,927.32
2019-04-22T14:31:24.324Z,927.31
2019-04-22T14:31:42.452Z,927.31
2019-04-22T14:34:20.768Z,927.31
2019-04-22T14:34:38.390Z,927.3
2019-04-22T14:34:57.323Z,927.27
2019-04-22T14:35:15.342Z,927.27
2019-04-22T14:35:33.679Z,927.28
2019-04-22T14:35:53.083Z,927.31
2019-04-22T14:36:11.629Z,927.3
2019-04-22T14:36:29.692Z,927.27
2019-04-22T14:36:47.560Z,927.29
2019-04-22T14:37:05.692Z,927.29
2019-04-22T14:37:24.341Z,927.26
2019-04-22T14:37:42.437Z,927.23
2019-04-22T14:38:01.287Z,927.25
2019-04-22T14:38:19.462Z,927.29
2019-04-22T14:38:37.840Z,927.24